Aviation Digital Data Service (ADDS)

Output produced by METARs form (2147 UTC 16 February 2019)
found at http://www.aviationweather.gov/metar/data/
 
Forecast for: WAMM (MENADO/SAM RATUL, ID)
Text: TAF WAMM 161700Z 1618/1724 36007KT 9999 FEW022
Forecast period: 1800 to 1900 UTC 16 February 2019
Forecast type: FROM: standard forecast or significant change
Winds: from the N (360 degrees) at 8 MPH (7 knots; 3.6 m/s)
Visibility: 6 or more miles 10+ km)
Ceiling: at least 12,000 feet AGL
Clouds: few clouds at 2200 feet AGL
Weather: no significant weather forecast for this period
Text: BECMG 1619/1621 00000KT
Forecast period: 1900 UTC 16 February 2019 to 0100 UTC 17 February 2019
Forecast type: BECOMING: Conditions expected to become as follows by 2100 UTC 16 February 2019
Winds: calm
Visibility: 6 or more miles 10+ km)
Ceiling: at least 12,000 feet AGL
Clouds: few clouds at 2200 feet AGL
Weather: no significant weather forecast for this period
Text: BECMG 1701/1703 04005KT
Forecast period: 0100 UTC 17 February 2019 to 0000 UTC 18 February 2019
Forecast type: BECOMING: Conditions expected to become as follows by 0300 UTC 17 February 2019
Winds: from the NE (40 degrees) at 6 MPH (5 knots; 2.6 m/s)
Visibility: 6 or more miles 10+ km)
Ceiling: at least 12,000 feet AGL
Clouds: few clouds at 2200 feet AGL
Weather: no significant weather forecast for this period